KTRL/TRL METAR and TAF weather

Enter ICAO airport designator
Station Type Date Time Source
KTRL METAR 2022/06/28 07:53 UTC NOAA

KTRL 280753Z AUTO 07004KT 10SM CLR 24/17 A3016 RMK AO2 SLP205 T02390172


Station Type Date Time Source
KTRL Decoded METAR 2022/06/28 07:53 UTC NOAA

TERRELL MUNICIPAL AIRPORT, TX, United States (KTRL) 32-43N 96-16W 144M
Jun 28, 2022 - 03:53 AM EDT / 2022.06.28 0753 UTC
Wind: from the ENE (070 degrees) at 5 MPH (4 KT):0
Visibility: 10 mile(s):0
Sky conditions: clear
Temperature: 75.0 F (23.9 C)
Dew Point: 63.0 F (17.2 C)
Relative Humidity: 66%
Pressure (altimeter): 30.16 in. Hg (1021 hPa)
ob: KTRL 280753Z AUTO 07004KT 10SM CLR 24/17 A3016 RMK AO2 SLP205 T02390172
cycle: 8

Station Type Date Time Source
KTRL TAF UTC NOAA

Error!

Example: see airport list